createdAt,value
2022-08-28T00:00:11.043Z,18.50
2022-08-28T00:02:37.929Z,18.50
2022-08-28T00:05:06.032Z,18.60
2022-08-28T00:07:32.764Z,18.50
2022-08-28T00:09:59.445Z,18.50
2022-08-28T00:12:27.155Z,18.60
2022-08-28T00:14:53.828Z,18.50
2022-08-28T00:17:20.472Z,17.50
2022-08-28T00:19:47.447Z,18.50
2022-08-28T00:22:14.132Z,18.50
2022-08-28T00:27:37.373Z,18.50
2022-08-28T00:30:04.563Z,18.50
2022-08-28T00:35:01.624Z,18.50
2022-08-28T00:37:28.621Z,18.50
2022-08-28T00:39:55.372Z,18.50
2022-08-28T00:42:23.137Z,18.40
2022-08-28T00:47:17.051Z,18.50
2022-08-28T00:49:51.220Z,18.40
2022-08-28T00:52:18.742Z,18.40
2022-08-28T00:54:59.140Z,18.90
2022-08-28T00:57:32.176Z,18.40
2022-08-28T01:02:27.568Z,18.40
2022-08-28T01:04:54.369Z,18.30
2022-08-28T01:07:23.298Z,18.40
2022-08-28T01:09:52.927Z,18.40
2022-08-28T01:12:21.623Z,15.80
2022-08-28T01:14:49.510Z,18.20
2022-08-28T01:17:17.200Z,18.00
2022-08-28T01:19:56.309Z,18.50
2022-08-28T01:22:26.326Z,18.00
2022-08-28T01:29:51.729Z,18.10
2022-08-28T01:32:40.723Z,18.10
2022-08-28T01:35:09.655Z,18.10
2022-08-28T01:40:05.459Z,18.10
2022-08-28T01:42:38.590Z,18.20
2022-08-28T01:45:06.648Z,18.10
2022-08-28T01:47:33.302Z,18.10
2022-08-28T01:50:00.006Z,18.10
2022-08-28T01:52:26.680Z,18.00
2022-08-28T01:54:53.418Z,18.00
2022-08-28T01:57:20.063Z,18.00
2022-08-28T01:59:49.886Z,18.00
2022-08-28T02:02:16.753Z,18.10
2022-08-28T02:04:47.949Z,18.00
2022-08-28T02:09:43.634Z,18.00
2022-08-28T02:12:10.778Z,17.90
2022-08-28T02:17:05.458Z,18.00
2022-08-28T02:21:59.198Z,18.00
2022-08-28T02:24:25.960Z,18.50
2022-08-28T02:26:52.621Z,19.60
2022-08-28T02:31:46.400Z,17.90
2022-08-28T02:36:41.796Z,18.00
2022-08-28T02:39:08.547Z,17.90
2022-08-28T02:41:35.286Z,17.90
2022-08-28T02:50:17.771Z,18.00
2022-08-28T02:52:44.423Z,17.90
2022-08-28T02:57:39.797Z,17.90
2022-08-28T03:00:07.951Z,17.90
2022-08-28T03:05:01.721Z,18.00
2022-08-28T03:07:29.350Z,18.00
2022-08-28T03:09:56.279Z,18.00
2022-08-28T03:12:24.322Z,17.90
2022-08-28T03:14:54.004Z,17.90
2022-08-28T03:17:21.364Z,17.80
2022-08-28T03:19:50.006Z,17.90
2022-08-28T03:22:43.027Z,18.00
2022-08-28T03:30:07.007Z,17.90
2022-08-28T03:32:33.932Z,17.90
2022-08-28T03:35:00.596Z,17.90
2022-08-28T03:39:55.094Z,17.90
2022-08-28T03:42:22.520Z,17.90
2022-08-28T03:44:49.485Z,17.90
2022-08-28T03:47:16.562Z,17.90
2022-08-28T03:52:12.369Z,17.90
2022-08-28T03:54:39.065Z,17.90
2022-08-28T03:57:07.154Z,17.80
2022-08-28T03:59:34.876Z,17.80
2022-08-28T04:09:24.261Z,17.80
2022-08-28T04:11:52.737Z,17.80
2022-08-28T04:14:19.408Z,17.90
2022-08-28T04:19:13.760Z,17.80
2022-08-28T04:21:40.406Z,17.70
2022-08-28T04:24:09.649Z,17.80
2022-08-28T04:26:36.865Z,17.70
2022-08-28T04:29:04.378Z,17.60
2022-08-28T04:31:32.627Z,17.70
2022-08-28T04:34:00.754Z,17.70
2022-08-28T04:36:28.455Z,17.70
2022-08-28T04:38:55.533Z,17.70
2022-08-28T04:41:22.900Z,17.80
2022-08-28T04:43:50.992Z,17.80
2022-08-28T04:46:17.874Z,17.80
2022-08-28T04:51:12.540Z,17.80
2022-08-28T04:53:39.276Z,18.00
2022-08-28T04:56:07.317Z,17.80
2022-08-28T05:01:06.709Z,17.90
2022-08-28T05:03:33.527Z,17.90
2022-08-28T05:06:00.258Z,17.80
2022-08-28T05:10:55.443Z,17.90
2022-08-28T05:15:50.943Z,18.00
2022-08-28T05:18:19.576Z,17.90
2022-08-28T05:23:14.743Z,18.00
2022-08-28T05:25:43.607Z,17.90
2022-08-28T05:28:11.907Z,17.90
2022-08-28T05:30:39.556Z,18.00
2022-08-28T05:33:07.009Z,17.90
2022-08-28T05:38:01.369Z,18.00
2022-08-28T05:40:28.186Z,19.70
2022-08-28T05:42:55.934Z,18.10
2022-08-28T05:45:22.711Z,18.10
2022-08-28T05:50:18.052Z,18.10
2022-08-28T05:52:44.870Z,18.70
2022-08-28T05:55:12.106Z,18.10
2022-08-28T05:57:42.126Z,18.10
2022-08-28T06:00:13.667Z,18.10
2022-08-28T06:02:41.916Z,18.10
2022-08-28T06:05:09.420Z,17.90
2022-08-28T06:07:40.925Z,18.10
2022-08-28T06:12:37.722Z,18.10
2022-08-28T06:15:05.990Z,18.10
2022-08-28T06:17:32.718Z,18.10
2022-08-28T06:19:59.424Z,18.10
2022-08-28T06:22:26.090Z,18.10
2022-08-28T06:27:20.639Z,18.20
2022-08-28T06:29:47.292Z,18.20
2022-08-28T06:32:14.078Z,18.20
2022-08-28T06:34:40.911Z,18.30
2022-08-28T06:39:36.550Z,18.30
2022-08-28T06:42:03.363Z,18.30
2022-08-28T06:44:32.122Z,18.30
2022-08-28T06:46:59.041Z,18.40
2022-08-28T06:49:25.811Z,16.50
2022-08-28T06:51:52.756Z,18.30
2022-08-28T07:01:44.802Z,18.30
2022-08-28T07:04:12.037Z,19.30
2022-08-28T07:06:40.366Z,18.20
2022-08-28T07:09:08.450Z,18.20
2022-08-28T07:11:35.937Z,18.20
2022-08-28T07:14:03.046Z,18.50
2022-08-28T07:16:31.605Z,18.10
2022-08-28T07:18:58.977Z,18.20
2022-08-28T07:21:26.006Z,18.20
2022-08-28T07:23:53.427Z,18.00
2022-08-28T07:26:23.375Z,18.20
2022-08-28T07:28:51.443Z,18.20
2022-08-28T07:31:20.211Z,18.00
2022-08-28T07:33:47.010Z,18.20
2022-08-28T07:36:29.373Z,18.30
2022-08-28T07:38:57.496Z,18.30
2022-08-28T07:41:29.262Z,18.30
2022-08-28T07:44:14.577Z,18.30
2022-08-28T07:46:41.809Z,18.30
2022-08-28T07:49:08.759Z,18.50
2022-08-28T07:51:35.615Z,18.50
2022-08-28T07:56:30.937Z,18.40
2022-08-28T07:58:58.259Z,21.80
2022-08-28T08:01:25.860Z,16.70
2022-08-28T08:03:55.834Z,18.50
2022-08-28T08:06:31.013Z,18.50
2022-08-28T08:09:01.306Z,18.70
2022-08-28T08:11:27.965Z,18.70
2022-08-28T08:16:34.624Z,19.00
2022-08-28T08:19:01.639Z,19.00
2022-08-28T08:21:30.415Z,19.10
2022-08-28T08:23:57.674Z,18.00
2022-08-28T08:26:25.827Z,19.10
2022-08-28T08:28:52.593Z,19.00
2022-08-28T08:31:27.591Z,19.10
2022-08-28T08:33:56.798Z,19.30
2022-08-28T08:36:24.880Z,19.40
2022-08-28T08:38:59.547Z,19.40
2022-08-28T08:41:37.906Z,21.60
2022-08-28T08:44:33.586Z,19.20
2022-08-28T08:47:14.522Z,19.20
2022-08-28T08:49:50.850Z,19.10
2022-08-28T08:52:41.715Z,19.00
2022-08-28T08:55:19.866Z,19.20
2022-08-28T09:00:16.429Z,20.30
2022-08-28T09:03:10.029Z,19.40
2022-08-28T09:05:48.651Z,19.40
2022-08-28T09:08:40.150Z,19.40
2022-08-28T09:11:26.423Z,19.50
2022-08-28T09:13:59.338Z,19.80
2022-08-28T09:16:35.803Z,18.80
2022-08-28T09:19:02.536Z,19.80
2022-08-28T09:21:38.940Z,19.90
2022-08-28T09:24:07.330Z,19.90
2022-08-28T09:26:39.084Z,20.20
2022-08-28T09:29:10.012Z,19.90
2022-08-28T09:31:38.943Z,19.80
2022-08-28T09:34:21.182Z,20.20
2022-08-28T09:36:48.376Z,20.30
2022-08-28T09:39:25.617Z,20.40
2022-08-28T09:42:12.650Z,20.50
2022-08-28T09:44:57.167Z,19.40
2022-08-28T09:47:42.871Z,20.70
2022-08-28T09:50:22.898Z,22.00
2022-08-28T09:52:49.984Z,20.70
2022-08-28T09:55:53.927Z,20.90
2022-08-28T09:58:21.098Z,20.90
2022-08-28T10:01:08.160Z,20.80
2022-08-28T10:03:42.689Z,21.00
2022-08-28T10:06:33.543Z,21.00
2022-08-28T10:09:25.310Z,21.00
2022-08-28T10:12:12.095Z,21.80
2022-08-28T10:17:14.564Z,21.30
2022-08-28T10:20:03.603Z,21.50
2022-08-28T10:23:17.620Z,21.20
2022-08-28T10:25:56.903Z,21.40
2022-08-28T10:28:37.744Z,21.40
2022-08-28T10:31:24.476Z,21.50
2022-08-28T10:34:33.133Z,21.50
2022-08-28T10:37:19.394Z,21.40
2022-08-28T10:39:50.963Z,21.20
2022-08-28T10:42:24.962Z,21.30
2022-08-28T10:45:05.432Z,21.20
2022-08-28T10:47:33.862Z,21.20
2022-08-28T10:50:02.962Z,20.70
2022-08-28T10:52:52.117Z,21.30
2022-08-28T10:55:27.912Z,21.10
2022-08-28T10:57:59.298Z,21.20
2022-08-28T11:00:27.418Z,21.10
2022-08-28T11:03:17.817Z,20.90
2022-08-28T11:05:56.716Z,22.20
2022-08-28T11:08:29.292Z,20.70
2022-08-28T11:11:00.408Z,20.60
2022-08-28T11:13:56.184Z,20.60
2022-08-28T11:16:30.342Z,20.40
2022-08-28T11:19:17.680Z,20.20
2022-08-28T11:21:57.353Z,20.30
2022-08-28T11:24:47.068Z,20.00
2022-08-28T11:27:21.463Z,20.00
2022-08-28T11:30:09.259Z,19.90
2022-08-28T11:37:45.521Z,19.70
2022-08-28T11:40:30.283Z,19.70
2022-08-28T11:43:16.522Z,19.70
2022-08-28T11:48:26.173Z,19.80
2022-08-28T11:51:07.467Z,19.90
2022-08-28T11:53:54.793Z,19.80
2022-08-28T11:56:40.901Z,19.90
2022-08-28T11:59:17.729Z,19.90
2022-08-28T12:01:44.462Z,18.80
2022-08-28T12:04:16.993Z,19.80
2022-08-28T12:06:54.669Z,20.00
2022-08-28T12:09:38.932Z,20.10
2022-08-28T12:12:13.496Z,20.80
2022-08-28T12:14:40.104Z,20.20
2022-08-28T12:17:08.770Z,20.50
2022-08-28T12:19:43.093Z,23.70
2022-08-28T12:22:25.229Z,20.90
2022-08-28T12:24:57.440Z,20.80
2022-08-28T12:27:24.536Z,20.90
2022-08-28T12:29:59.004Z,20.80
2022-08-28T12:32:38.820Z,20.70
2022-08-28T12:35:16.767Z,21.10
2022-08-28T12:37:53.789Z,21.80
2022-08-28T12:40:24.806Z,21.30
2022-08-28T12:43:01.209Z,21.40
2022-08-28T12:45:56.344Z,21.30
2022-08-28T12:48:25.205Z,21.90
2022-08-28T12:51:03.049Z,19.50
2022-08-28T12:53:45.965Z,21.40
2022-08-28T12:56:14.218Z,22.00
2022-08-28T13:01:31.805Z,22.20
2022-08-28T13:04:03.621Z,22.30
2022-08-28T13:06:37.402Z,19.70
2022-08-28T13:09:06.767Z,22.60
2022-08-28T13:11:40.179Z,21.60
2022-08-28T13:16:36.518Z,23.00
2022-08-28T13:19:21.706Z,22.80
2022-08-28T13:21:48.440Z,22.70
2022-08-28T13:24:21.556Z,22.50
2022-08-28T13:27:09.413Z,22.80
2022-08-28T13:29:36.211Z,23.30
2022-08-28T13:32:10.081Z,23.40
2022-08-28T13:34:38.000Z,24.60
2022-08-28T13:37:14.588Z,24.50
2022-08-28T13:39:46.831Z,24.40
2022-08-28T13:42:14.170Z,24.50
2022-08-28T13:44:49.254Z,24.40
2022-08-28T13:47:16.755Z,24.10
2022-08-28T13:54:38.284Z,23.50
2022-08-28T13:59:36.920Z,23.00
2022-08-28T14:07:18.591Z,24.20
2022-08-28T14:09:45.428Z,28.00
2022-08-28T14:12:12.185Z,23.80
2022-08-28T14:14:38.992Z,23.60
2022-08-28T14:17:06.681Z,26.40
2022-08-28T14:19:33.741Z,23.80
2022-08-28T14:22:00.437Z,23.70
2022-08-28T14:24:27.281Z,23.60
2022-08-28T14:26:54.034Z,23.60
2022-08-28T14:29:20.742Z,23.60
2022-08-28T14:31:47.557Z,23.60
2022-08-28T14:34:19.931Z,26.20
2022-08-28T14:36:50.857Z,23.40
2022-08-28T14:39:17.701Z,23.10
2022-08-28T14:41:46.452Z,23.00
2022-08-28T14:44:13.247Z,22.90
2022-08-28T14:46:43.006Z,23.00
2022-08-28T14:49:10.695Z,22.80
2022-08-28T14:51:41.550Z,22.80
2022-08-28T14:54:09.013Z,22.80
2022-08-28T14:56:35.944Z,22.60
2022-08-28T14:59:03.114Z,22.60
2022-08-28T15:01:39.922Z,22.60
2022-08-28T15:04:13.260Z,22.70
2022-08-28T15:06:42.398Z,22.80
2022-08-28T15:09:12.189Z,22.80
2022-08-28T15:11:39.271Z,22.90
2022-08-28T15:14:06.518Z,22.80
2022-08-28T15:16:35.315Z,22.70
2022-08-28T15:19:02.542Z,22.60
2022-08-28T15:21:32.688Z,22.60
2022-08-28T15:24:00.428Z,22.60
2022-08-28T15:26:27.636Z,22.50
2022-08-28T15:28:58.246Z,22.50
2022-08-28T15:31:25.086Z,22.40
2022-08-28T15:36:19.699Z,22.40
2022-08-28T15:39:05.170Z,22.40
2022-08-28T15:41:31.963Z,22.80
2022-08-28T15:44:02.744Z,23.20
2022-08-28T15:46:31.548Z,23.20
2022-08-28T15:48:58.510Z,23.30
2022-08-28T15:51:26.227Z,23.40
2022-08-28T15:53:52.972Z,23.10
2022-08-28T15:56:20.221Z,23.80
2022-08-28T15:58:46.912Z,23.40
2022-08-28T16:01:13.847Z,23.40
2022-08-28T16:03:40.680Z,23.40
2022-08-28T16:06:12.474Z,23.50
2022-08-28T16:08:39.356Z,23.40
2022-08-28T16:11:06.095Z,23.70
2022-08-28T16:13:32.759Z,23.70
2022-08-28T16:15:59.595Z,23.80
2022-08-28T16:18:26.369Z,23.90
2022-08-28T16:20:53.008Z,24.00
2022-08-28T16:23:19.804Z,24.00
2022-08-28T16:25:46.570Z,24.00
2022-08-28T16:28:13.564Z,23.90
2022-08-28T16:30:43.932Z,23.80
2022-08-28T16:33:11.152Z,23.80
2022-08-28T16:35:39.588Z,23.80
2022-08-28T16:38:09.484Z,23.60
2022-08-28T16:40:37.986Z,23.60
2022-08-28T16:43:05.078Z,23.40
2022-08-28T16:45:31.877Z,23.40
2022-08-28T16:47:58.641Z,23.90
2022-08-28T16:50:28.277Z,23.50
2022-08-28T16:52:55.058Z,23.50
2022-08-28T16:55:21.849Z,23.40
2022-08-28T16:57:48.791Z,23.30
2022-08-28T17:00:15.710Z,23.40
2022-08-28T17:02:43.561Z,23.50
2022-08-28T17:05:11.080Z,23.70
2022-08-28T17:07:39.707Z,23.90
2022-08-28T17:10:07.364Z,24.10
2022-08-28T17:12:34.118Z,23.90
2022-08-28T17:15:01.456Z,24.00
2022-08-28T17:17:28.602Z,24.00
2022-08-28T17:19:55.279Z,24.20
2022-08-28T17:22:32.105Z,24.30
2022-08-28T17:24:59.802Z,24.10
2022-08-28T17:27:26.702Z,24.00
2022-08-28T17:29:53.497Z,24.00
2022-08-28T17:32:20.345Z,23.30
2022-08-28T17:34:47.524Z,22.70
2022-08-28T17:37:14.273Z,22.30
2022-08-28T17:39:40.936Z,22.10
2022-08-28T17:42:07.726Z,21.80
2022-08-28T17:44:35.372Z,21.60
2022-08-28T17:47:02.113Z,21.50
2022-08-28T17:49:28.842Z,21.40
2022-08-28T17:51:55.524Z,21.30
2022-08-28T17:54:24.131Z,21.20
2022-08-28T17:56:51.751Z,21.00
2022-08-28T18:04:15.649Z,20.60
2022-08-28T18:06:46.475Z,20.50
2022-08-28T18:09:14.465Z,20.40
2022-08-28T18:11:41.426Z,20.20
2022-08-28T18:14:08.253Z,20.10
2022-08-28T18:16:35.371Z,20.70
2022-08-28T18:19:02.544Z,19.80
2022-08-28T18:21:29.349Z,19.60
2022-08-28T18:23:56.453Z,19.50
2022-08-28T18:26:23.376Z,19.30
2022-08-28T18:31:17.830Z,19.20
2022-08-28T18:33:44.665Z,19.30
2022-08-28T18:38:39.078Z,19.10
2022-08-28T18:41:06.361Z,19.00
2022-08-28T18:46:01.323Z,18.90
2022-08-28T18:48:28.079Z,18.80
2022-08-28T18:50:54.808Z,18.70
2022-08-28T18:53:22.433Z,18.60
2022-08-28T18:55:51.667Z,18.50
2022-08-28T18:58:20.052Z,19.50
2022-08-28T19:03:14.520Z,18.50
2022-08-28T19:05:41.766Z,18.50
2022-08-28T19:13:04.581Z,18.20
2022-08-28T19:15:32.611Z,19.70
2022-08-28T19:18:02.632Z,19.80
2022-08-28T19:28:00.132Z,17.90
2022-08-28T19:30:27.972Z,18.40
2022-08-28T19:32:54.861Z,20.80
2022-08-28T19:40:18.262Z,17.70
2022-08-28T19:42:45.040Z,17.70
2022-08-28T19:47:40.092Z,17.60
2022-08-28T19:50:08.418Z,17.60
2022-08-28T19:55:05.583Z,17.50
2022-08-28T19:57:33.028Z,17.40
2022-08-28T20:00:00.225Z,17.50
2022-08-28T20:07:24.971Z,17.60
2022-08-28T20:09:52.147Z,17.60
2022-08-28T20:12:19.040Z,17.60
2022-08-28T20:14:45.874Z,17.60
2022-08-28T20:19:41.233Z,17.70
2022-08-28T20:22:07.996Z,17.80
2022-08-28T20:27:01.951Z,17.60
2022-08-28T20:29:29.305Z,17.60
2022-08-28T20:31:56.070Z,17.50
2022-08-28T20:34:23.049Z,17.50
2022-08-28T20:41:44.444Z,17.30
2022-08-28T20:44:12.822Z,17.30
2022-08-28T20:49:10.534Z,17.20
2022-08-28T20:51:55.776Z,17.20
2022-08-28T20:54:29.744Z,16.90
2022-08-28T20:56:57.680Z,17.00
2022-08-28T21:02:01.363Z,17.00
2022-08-28T21:09:53.733Z,16.80
2022-08-28T21:12:11.404Z,16.30
2022-08-28T21:17:05.567Z,16.70
2022-08-28T21:19:34.465Z,16.60
2022-08-28T21:22:06.522Z,18.60
2022-08-28T21:24:34.045Z,17.40
2022-08-28T21:29:29.063Z,16.60
2022-08-28T21:31:55.779Z,18.10
2022-08-28T21:34:22.476Z,16.50
2022-08-28T21:39:20.424Z,16.40
2022-08-28T21:41:47.769Z,16.40
2022-08-28T21:44:14.474Z,16.40
2022-08-28T21:46:41.385Z,16.30
2022-08-28T21:49:08.083Z,16.30
2022-08-28T21:56:29.925Z,16.20
2022-08-28T21:58:56.821Z,15.40
2022-08-28T22:06:21.221Z,16.10
2022-08-28T22:08:48.020Z,16.10
2022-08-28T22:13:46.849Z,16.10
2022-08-28T22:16:13.836Z,16.00
2022-08-28T22:18:40.666Z,16.00
2022-08-28T22:21:31.474Z,15.90
2022-08-28T22:23:58.172Z,15.90
2022-08-28T22:33:46.609Z,15.90
2022-08-28T22:36:13.558Z,16.50
2022-08-28T22:38:41.068Z,15.80
2022-08-28T22:41:13.897Z,15.80
2022-08-28T22:43:40.718Z,16.40
2022-08-28T22:46:07.799Z,15.70
2022-08-28T22:51:07.021Z,15.60
2022-08-28T22:53:34.603Z,15.60
2022-08-28T22:56:01.362Z,15.60
2022-08-28T22:58:29.545Z,15.50
2022-08-28T23:00:57.416Z,17.20
2022-08-28T23:03:24.596Z,15.50
2022-08-28T23:05:51.482Z,17.40
2022-08-28T23:13:26.524Z,15.30
2022-08-28T23:23:18.831Z,15.30
2022-08-28T23:25:45.563Z,15.20
2022-08-28T23:28:12.451Z,15.20
2022-08-28T23:30:41.245Z,15.20
2022-08-28T23:35:51.200Z,15.10
2022-08-28T23:40:46.193Z,15.10
2022-08-28T23:43:12.944Z,15.00
2022-08-28T23:45:41.476Z,15.10
2022-08-28T23:58:00.462Z,15.00
